Buxton, United Kingdom
Current Conditions -  °F | °C
As of 3:20 PM on Friday 19 Dec 2014 (Local Time) from EGCC Reporting Station
Scattered Clouds Scattered Clouds  
Wind Chill:   Ceiling: Unl
Heat Index:   Visibility: 6mi
Dew Point:   Wind: 18mph
Humidity: 81%   Direction: 260°W
Pressure: 29.94"   Gusts: NA
Location:  53.26°N, 1.91°W
Report Text: EGCC 191520Z 26016KT 9999 FEW006CB SCT035 06/03 Q1014
Loading
Personal Weather Stations






























Interactive Weather Map New forecast layout! Learn more

10-Day Weather Forecast

Advertisements
Track Severe Weather on mobile